createdAt,value
2018-11-29T00:00:38.229Z,64.90
2018-11-29T00:03:11.130Z,63.70
2018-11-29T00:05:41.943Z,64.10
2018-11-29T00:08:12.255Z,64.40
2018-11-29T00:10:42.548Z,64.20
2018-11-29T00:13:12.868Z,64.00
2018-11-29T00:15:43.161Z,63.80
2018-11-29T00:18:13.459Z,63.20
2018-11-29T00:20:43.712Z,62.90
2018-11-29T00:23:14.013Z,63.00
2018-11-29T00:25:44.288Z,63.70
2018-11-29T00:28:14.577Z,63.60
2018-11-29T00:30:44.860Z,63.80
2018-11-29T00:33:15.169Z,63.50
2018-11-29T00:35:45.452Z,63.90
2018-11-29T00:38:16.951Z,64.30
2018-11-29T00:40:47.276Z,64.20
2018-11-29T00:43:17.754Z,63.70
2018-11-29T00:45:48.028Z,63.80
2018-11-29T00:48:18.407Z,64.00
2018-11-29T00:50:49.039Z,64.30
2018-11-29T00:53:19.343Z,64.30
2018-11-29T00:55:49.989Z,63.90
2018-11-29T00:58:20.312Z,63.90
2018-11-29T01:00:50.673Z,63.80
2018-11-29T01:03:21.073Z,63.80
2018-11-29T01:05:51.716Z,63.50
2018-11-29T01:08:22.060Z,63.70
2018-11-29T01:10:52.338Z,63.90
2018-11-29T01:13:23.008Z,64.00
2018-11-29T01:15:53.260Z,64.50
2018-11-29T01:18:23.568Z,64.20
2018-11-29T01:20:54.077Z,64.00
2018-11-29T01:23:24.371Z,63.70
2018-11-29T01:25:54.955Z,63.80
2018-11-29T01:28:25.245Z,64.10
2018-11-29T01:30:55.520Z,64.30
2018-11-29T01:33:25.797Z,64.70
2018-11-29T01:35:56.297Z,64.80
2018-11-29T01:38:26.563Z,64.90
2018-11-29T01:40:57.231Z,64.70
2018-11-29T01:43:27.533Z,64.20
2018-11-29T01:45:58.135Z,64.00
2018-11-29T01:48:28.429Z,63.90
2018-11-29T01:50:58.976Z,64.10
2018-11-29T01:53:29.294Z,64.10
2018-11-29T01:56:00.029Z,64.10
2018-11-29T01:58:30.388Z,64.30
2018-11-29T02:01:00.879Z,64.50
2018-11-29T02:03:31.216Z,64.20
2018-11-29T02:06:01.937Z,64.50
2018-11-29T02:08:32.273Z,64.90
2018-11-29T02:11:03.190Z,65.40
2018-11-29T02:13:33.610Z,66.00
2018-11-29T02:16:03.933Z,66.10
2018-11-29T02:18:35.628Z,66.20
2018-11-29T02:21:06.706Z,66.20
2018-11-29T02:23:37.069Z,66.50
2018-11-29T02:26:07.511Z,66.60
2018-11-29T02:28:37.816Z,66.60
2018-11-29T02:31:08.444Z,66.50
2018-11-29T02:33:38.761Z,66.70
2018-11-29T02:36:09.129Z,67.00
2018-11-29T02:38:39.443Z,67.30
2018-11-29T02:41:10.057Z,67.30
2018-11-29T02:43:40.361Z,66.80
2018-11-29T02:46:10.668Z,66.80
2018-11-29T02:48:40.958Z,66.60
2018-11-29T02:51:11.232Z,66.90
2018-11-29T02:53:41.519Z,66.40
2018-11-29T02:56:11.757Z,66.10
2018-11-29T02:58:42.070Z,65.60
2018-11-29T03:01:12.316Z,65.80
2018-11-29T03:03:42.620Z,66.00
2018-11-29T03:06:12.910Z,66.30
2018-11-29T03:08:43.189Z,66.30
2018-11-29T03:11:13.440Z,66.20
2018-11-29T03:13:43.717Z,66.30
2018-11-29T03:16:14.024Z,65.90
2018-11-29T03:18:44.324Z,65.50
2018-11-29T03:21:14.568Z,65.40
2018-11-29T03:23:44.836Z,65.50
2018-11-29T03:26:15.113Z,65.10
2018-11-29T03:28:45.403Z,64.90
2018-11-29T03:31:15.646Z,65.00
2018-11-29T03:33:48.905Z,64.50
2018-11-29T03:36:19.231Z,64.50
2018-11-29T03:38:49.522Z,65.20
2018-11-29T03:41:19.824Z,64.30
2018-11-29T03:43:50.124Z,64.60
2018-11-29T03:46:20.732Z,64.70
2018-11-29T03:48:51.308Z,65.30
2018-11-29T03:51:21.585Z,65.70
2018-11-29T03:53:51.899Z,66.00
2018-11-29T03:56:22.214Z,66.20
2018-11-29T03:58:53.089Z,66.40
2018-11-29T04:01:23.375Z,66.00
2018-11-29T04:03:54.185Z,65.60
2018-11-29T04:06:24.659Z,65.30
2018-11-29T04:08:55.921Z,65.30
2018-11-29T04:11:26.196Z,65.60
2018-11-29T04:13:56.656Z,65.80
2018-11-29T04:16:26.976Z,66.00
2018-11-29T04:18:57.498Z,66.60
2018-11-29T04:21:27.804Z,66.60
2018-11-29T04:23:58.231Z,66.70
2018-11-29T04:26:28.670Z,66.80
2018-11-29T04:28:59.080Z,66.90
2018-11-29T04:31:29.341Z,66.80
2018-11-29T04:34:00.104Z,66.90
2018-11-29T04:36:30.439Z,66.70
2018-11-29T04:39:01.037Z,67.70
2018-11-29T04:41:31.369Z,67.90
2018-11-29T04:44:01.992Z,67.90
2018-11-29T04:46:51.476Z,67.90
2018-11-29T04:49:21.804Z,67.80
2018-11-29T04:51:52.087Z,67.90
2018-11-29T04:54:22.417Z,67.70
2018-11-29T04:56:52.764Z,67.70
2018-11-29T04:59:23.245Z,67.20
2018-11-29T05:01:53.859Z,67.20
2018-11-29T05:04:24.187Z,67.50
2018-11-29T05:06:54.989Z,67.60
2018-11-29T05:09:25.746Z,67.10
2018-11-29T05:11:56.021Z,66.70
2018-11-29T05:14:26.416Z,66.70
2018-11-29T05:16:57.275Z,67.30
2018-11-29T05:19:28.001Z,67.80
2018-11-29T05:21:58.404Z,68.40
2018-11-29T05:24:28.857Z,68.40
2018-11-29T05:26:59.156Z,68.30
2018-11-29T05:29:29.757Z,68.20
2018-11-29T05:32:00.060Z,67.70
2018-11-29T05:34:30.329Z,67.80
2018-11-29T05:37:01.120Z,67.20
2018-11-29T05:39:31.416Z,66.80
2018-11-29T05:42:02.089Z,66.50
2018-11-29T05:44:32.412Z,66.50
2018-11-29T05:47:02.877Z,66.80
2018-11-29T05:49:33.185Z,67.00
2018-11-29T05:52:03.447Z,67.20
2018-11-29T05:54:33.745Z,66.80
2018-11-29T05:57:04.017Z,67.20
2018-11-29T05:59:34.332Z,67.70
2018-11-29T06:02:05.363Z,67.60
2018-11-29T06:04:35.832Z,67.30
2018-11-29T06:07:06.217Z,66.60
2018-11-29T06:09:37.276Z,66.00
2018-11-29T06:12:07.577Z,65.80
2018-11-29T06:14:37.897Z,65.70
2018-11-29T06:17:08.232Z,65.50
2018-11-29T06:19:38.757Z,65.00
2018-11-29T06:22:09.048Z,64.70
2018-11-29T06:24:40.616Z,64.20
2018-11-29T06:27:11.325Z,63.80
2018-11-29T06:29:41.640Z,63.80
2018-11-29T06:32:11.988Z,64.10
2018-11-29T06:34:42.309Z,64.20
2018-11-29T06:37:12.999Z,64.50
2018-11-29T06:39:43.320Z,64.70
2018-11-29T06:42:13.599Z,64.30
2018-11-29T06:44:43.938Z,64.60
2018-11-29T06:47:14.313Z,65.10
2018-11-29T06:49:44.636Z,64.40
2018-11-29T06:52:14.922Z,64.80
2018-11-29T06:54:45.245Z,64.50
2018-11-29T06:57:15.515Z,64.80
2018-11-29T06:59:45.826Z,64.50
2018-11-29T07:02:16.152Z,64.30
2018-11-29T07:04:46.508Z,65.10
2018-11-29T07:07:17.145Z,63.80
2018-11-29T07:09:47.451Z,64.00
2018-11-29T07:12:18.599Z,63.70
2018-11-29T07:14:49.742Z,63.60
2018-11-29T07:17:20.029Z,63.60
2018-11-29T07:19:50.356Z,64.00
2018-11-29T07:22:20.681Z,64.70
2018-11-29T07:24:51.034Z,64.10
2018-11-29T07:27:21.300Z,64.50
2018-11-29T07:29:51.615Z,64.80
2018-11-29T07:32:25.076Z,64.90
2018-11-29T07:34:55.369Z,65.00
2018-11-29T07:37:25.858Z,65.00
2018-11-29T07:39:56.182Z,65.20
2018-11-29T07:42:27.061Z,64.70
2018-11-29T07:44:58.119Z,64.80
2018-11-29T07:47:28.656Z,64.10
2018-11-29T07:49:58.977Z,64.50
2018-11-29T07:52:29.300Z,64.40
2018-11-29T07:55:00.095Z,64.10
2018-11-29T07:57:30.362Z,63.50
2018-11-29T08:00:00.727Z,63.30
2018-11-29T08:02:31.138Z,62.70
2018-11-29T08:05:01.441Z,62.70
2018-11-29T08:07:31.768Z,63.40
2018-11-29T08:10:02.113Z,63.60
2018-11-29T08:12:32.441Z,63.20
2018-11-29T08:15:03.052Z,63.20
2018-11-29T08:17:33.356Z,63.20
2018-11-29T08:20:04.108Z,63.10
2018-11-29T08:22:34.376Z,63.60
2018-11-29T08:25:04.745Z,63.70
2018-11-29T08:27:35.044Z,64.00
2018-11-29T08:30:15.326Z,63.40
2018-11-29T08:32:45.603Z,62.90
2018-11-29T08:35:16.785Z,62.70
2018-11-29T08:37:48.004Z,62.40
2018-11-29T08:40:22.076Z,62.40
2018-11-29T08:42:52.372Z,62.00
2018-11-29T08:45:22.696Z,62.00
2018-11-29T08:47:53.017Z,61.70
2018-11-29T08:50:23.348Z,61.40
2018-11-29T08:52:53.614Z,61.60
2018-11-29T08:55:23.919Z,61.20
2018-11-29T08:57:54.243Z,61.00
2018-11-29T09:00:24.585Z,61.80
2018-11-29T09:02:54.869Z,61.50
2018-11-29T09:05:25.183Z,61.40
2018-11-29T09:07:55.973Z,61.40
2018-11-29T09:10:31.590Z,61.20
2018-11-29T09:12:57.030Z,60.50
2018-11-29T09:15:27.260Z,60.30
2018-11-29T09:17:58.045Z,59.80
2018-11-29T09:20:28.308Z,59.70
2018-11-29T09:22:59.234Z,59.20
2018-11-29T09:25:30.084Z,59.10
2018-11-29T09:28:00.368Z,58.90
2018-11-29T09:30:30.812Z,59.50
2018-11-29T09:33:01.185Z,59.50
2018-11-29T09:35:31.523Z,59.40
2018-11-29T09:38:01.918Z,59.50
2018-11-29T09:40:32.241Z,59.60
2018-11-29T09:43:02.716Z,59.80
2018-11-29T09:45:32.984Z,59.40
2018-11-29T09:48:03.301Z,59.10
2018-11-29T09:50:33.573Z,59.20
2018-11-29T09:53:04.045Z,58.80
2018-11-29T09:55:34.533Z,58.60
2018-11-29T09:58:04.840Z,58.10
2018-11-29T10:00:35.212Z,57.40
2018-11-29T10:03:09.624Z,57.20
2018-11-29T10:05:40.805Z,57.50
2018-11-29T10:08:13.088Z,58.30
2018-11-29T10:10:43.401Z,58.20
2018-11-29T10:13:13.786Z,57.90
2018-11-29T10:15:44.113Z,57.50
2018-11-29T10:18:14.356Z,57.10
2018-11-29T10:20:44.652Z,57.30
2018-11-29T10:23:15.292Z,57.00
2018-11-29T10:25:45.592Z,57.00
2018-11-29T10:28:17.055Z,56.80
2018-11-29T10:31:02.069Z,56.50
2018-11-29T10:33:32.423Z,56.00
2018-11-29T10:36:02.693Z,55.80
2018-11-29T10:38:33.037Z,55.50
2018-11-29T10:41:03.507Z,54.50
2018-11-29T10:43:33.799Z,54.00
2018-11-29T10:46:04.717Z,54.70
2018-11-29T10:48:35.061Z,54.50
2018-11-29T10:51:06.181Z,53.40
2018-11-29T10:53:38.078Z,53.30
2018-11-29T10:56:07.048Z,53.10
2018-11-29T10:58:38.074Z,53.20
2018-11-29T11:01:13.676Z,51.20
2018-11-29T11:03:44.165Z,48.80
2018-11-29T11:06:15.100Z,48.20
2018-11-29T11:08:45.429Z,46.00
2018-11-29T11:11:15.914Z,47.30
2018-11-29T11:13:46.244Z,47.70
2018-11-29T11:16:16.556Z,48.20
2018-11-29T11:18:46.870Z,47.00
2018-11-29T11:21:17.161Z,45.00
2018-11-29T11:23:47.471Z,45.30
2018-11-29T11:26:17.749Z,45.50
2018-11-29T11:28:48.080Z,46.10
2018-11-29T11:31:18.334Z,47.70
2018-11-29T11:33:48.672Z,47.90
2018-11-29T11:36:19.264Z,46.70
2018-11-29T11:38:49.624Z,45.90
2018-11-29T11:41:19.857Z,44.20
2018-11-29T11:43:50.173Z,42.20
2018-11-29T11:46:20.489Z,41.50
2018-11-29T11:48:51.040Z,38.90
2018-11-29T11:51:21.912Z,38.10
2018-11-29T11:53:52.909Z,38.20
2018-11-29T11:56:23.326Z,37.50
2018-11-29T11:58:53.673Z,37.60
2018-11-29T12:01:24.048Z,37.70
2018-11-29T12:03:54.398Z,37.50
2018-11-29T12:06:24.775Z,37.00
2018-11-29T12:08:55.180Z,36.40
2018-11-29T12:11:25.525Z,37.40
2018-11-29T12:13:55.785Z,38.50
2018-11-29T12:16:26.404Z,39.20
2018-11-29T12:19:02.048Z,40.00
2018-11-29T12:21:26.981Z,40.30
2018-11-29T12:23:57.286Z,42.90
2018-11-29T12:26:27.565Z,44.80
2018-11-29T12:28:57.893Z,46.60
2018-11-29T12:31:28.192Z,47.60
2018-11-29T12:33:58.904Z,47.50
2018-11-29T12:36:29.273Z,48.10
2018-11-29T12:38:59.949Z,48.30
2018-11-29T12:41:30.354Z,47.30
2018-11-29T12:44:01.005Z,46.80
2018-11-29T12:46:31.440Z,47.10
2018-11-29T12:49:01.975Z,48.00
2018-11-29T12:51:33.425Z,48.70
2018-11-29T12:54:04.158Z,49.60
2018-11-29T12:56:34.429Z,49.30
2018-11-29T12:59:04.747Z,49.90
2018-11-29T13:01:35.219Z,49.70
2018-11-29T13:04:05.748Z,49.70
2018-11-29T13:06:36.029Z,49.60
2018-11-29T13:09:10.841Z,49.40
2018-11-29T13:11:41.117Z,49.10
2018-11-29T13:14:11.525Z,49.10
2018-11-29T13:16:41.715Z,49.60
2018-11-29T13:19:12.073Z,50.00
2018-11-29T13:21:42.353Z,50.10
2018-11-29T13:24:12.633Z,50.00
2018-11-29T13:26:42.940Z,49.90
2018-11-29T13:29:13.243Z,50.50
2018-11-29T13:31:43.559Z,51.30
2018-11-29T13:34:13.833Z,51.70
2018-11-29T13:36:44.191Z,51.60
2018-11-29T13:39:14.510Z,52.50
2018-11-29T13:41:44.763Z,52.80
2018-11-29T13:44:15.242Z,52.70
2018-11-29T13:46:45.665Z,52.50
2018-11-29T13:49:16.070Z,52.50
2018-11-29T13:51:46.349Z,52.30
2018-11-29T13:54:16.949Z,52.30
2018-11-29T13:56:47.246Z,52.10
2018-11-29T13:59:17.545Z,52.40
2018-11-29T14:01:47.809Z,52.60
2018-11-29T14:04:18.201Z,53.40
2018-11-29T14:06:48.528Z,53.40
2018-11-29T14:09:19.060Z,54.10
2018-11-29T14:11:49.327Z,54.60
2018-11-29T14:14:19.714Z,54.80
2018-11-29T14:16:50.064Z,55.20
2018-11-29T14:19:20.411Z,55.40
2018-11-29T14:21:51.324Z,55.70
2018-11-29T14:24:20.952Z,55.70
2018-11-29T14:26:51.254Z,55.80
2018-11-29T14:29:21.570Z,55.60
2018-11-29T14:31:51.818Z,55.80
2018-11-29T14:34:22.111Z,56.00
2018-11-29T14:36:52.393Z,56.40
2018-11-29T14:39:23.113Z,56.10
2018-11-29T14:41:54.188Z,56.00
2018-11-29T14:44:24.485Z,56.00
2018-11-29T14:46:54.811Z,56.30
2018-11-29T14:49:25.120Z,56.70
2018-11-29T14:51:55.405Z,56.70
2018-11-29T14:54:25.735Z,56.60
2018-11-29T14:56:56.033Z,56.70
2018-11-29T14:59:26.353Z,56.60
2018-11-29T15:01:56.649Z,56.60
2018-11-29T15:04:27.815Z,56.80
2018-11-29T15:06:58.096Z,57.20
2018-11-29T15:09:28.421Z,57.50
2018-11-29T15:11:58.705Z,58.00
2018-11-29T15:14:29.036Z,58.60
2018-11-29T15:16:59.320Z,58.70
2018-11-29T15:19:29.633Z,58.60
2018-11-29T15:21:59.945Z,58.60
2018-11-29T15:24:30.260Z,58.50
2018-11-29T15:27:00.532Z,58.20
2018-11-29T15:29:30.868Z,58.20
2018-11-29T15:32:01.294Z,58.60
2018-11-29T15:34:31.895Z,58.50
2018-11-29T15:37:02.152Z,58.70
2018-11-29T15:39:33.059Z,58.80
2018-11-29T15:42:03.319Z,58.60
2018-11-29T15:44:34.032Z,58.70
2018-11-29T15:47:04.785Z,58.80
2018-11-29T15:49:35.084Z,58.70
2018-11-29T15:52:05.486Z,58.50
2018-11-29T15:54:35.877Z,58.20
2018-11-29T15:57:07.025Z,58.60
2018-11-29T15:59:38.073Z,58.90
2018-11-29T16:02:16.219Z,59.10
2018-11-29T16:04:47.700Z,59.30
2018-11-29T16:07:18.122Z,59.20
2018-11-29T16:09:49.132Z,58.70
2018-11-29T16:12:19.517Z,58.90
2018-11-29T16:14:49.924Z,58.90
2018-11-29T16:17:20.441Z,58.90
2018-11-29T16:19:50.758Z,58.90
2018-11-29T16:22:21.008Z,59.10
2018-11-29T16:24:51.321Z,59.20
2018-11-29T16:27:21.581Z,60.00
2018-11-29T16:29:51.973Z,60.30
2018-11-29T16:32:22.340Z,60.90
2018-11-29T16:34:52.643Z,61.30
2018-11-29T16:37:22.915Z,61.60
2018-11-29T16:39:53.264Z,61.40
2018-11-29T16:42:23.528Z,61.00
2018-11-29T16:44:53.832Z,60.50
2018-11-29T16:47:24.881Z,60.10
2018-11-29T16:49:55.177Z,59.70
2018-11-29T16:52:25.459Z,59.10
2018-11-29T16:54:55.777Z,58.60
2018-11-29T16:57:26.249Z,58.20
2018-11-29T16:59:56.567Z,58.10
2018-11-29T17:02:26.838Z,58.00
2018-11-29T17:04:57.128Z,57.70
2018-11-29T17:07:27.360Z,58.10
2018-11-29T17:09:57.636Z,58.10
2018-11-29T17:12:27.984Z,58.10
2018-11-29T17:14:58.716Z,58.20
2018-11-29T17:17:28.977Z,57.60
2018-11-29T17:19:59.276Z,57.60
2018-11-29T17:22:29.568Z,57.30
2018-11-29T17:24:59.923Z,57.20
2018-11-29T17:27:30.313Z,57.20
2018-11-29T17:30:00.645Z,57.10
2018-11-29T17:32:31.056Z,57.00
2018-11-29T17:35:01.409Z,57.00
2018-11-29T17:37:31.731Z,56.80
2018-11-29T17:40:02.125Z,56.40
2018-11-29T17:42:33.329Z,56.50
2018-11-29T17:45:05.098Z,56.90
2018-11-29T17:47:35.401Z,58.00
2018-11-29T17:50:13.304Z,58.70
2018-11-29T17:52:43.649Z,59.00
2018-11-29T17:55:14.096Z,59.10
2018-11-29T17:57:44.377Z,59.30
2018-11-29T18:00:24.354Z,59.50
2018-11-29T18:02:54.648Z,59.40
2018-11-29T18:05:25.016Z,59.10
2018-11-29T18:07:55.303Z,58.90
2018-11-29T18:10:32.555Z,58.60
2018-11-29T18:13:16.254Z,58.30
2018-11-29T18:15:46.894Z,58.40
2018-11-29T18:18:17.150Z,58.60
2018-11-29T18:20:47.433Z,58.40
2018-11-29T18:23:17.724Z,58.60
2018-11-29T18:25:48.079Z,58.30
2018-11-29T18:28:18.365Z,58.70
2018-11-29T18:30:48.688Z,58.50
2018-11-29T18:33:18.977Z,58.40
2018-11-29T18:35:49.297Z,58.20
2018-11-29T18:38:19.664Z,58.40
2018-11-29T18:40:49.959Z,58.40
2018-11-29T18:43:20.271Z,58.30
2018-11-29T18:45:50.588Z,58.40
2018-11-29T18:48:21.120Z,58.40
2018-11-29T18:50:51.443Z,58.50
2018-11-29T18:53:21.772Z,58.30
2018-11-29T18:55:52.299Z,58.30
2018-11-29T18:58:22.961Z,58.50
2018-11-29T19:00:53.666Z,58.70
2018-11-29T19:03:23.942Z,58.80
2018-11-29T19:05:54.435Z,59.00
2018-11-29T19:08:24.837Z,59.10
2018-11-29T19:10:55.204Z,58.90
2018-11-29T19:13:25.445Z,59.30
2018-11-29T19:15:55.753Z,59.50
2018-11-29T19:18:26.140Z,59.60
2018-11-29T19:20:56.443Z,59.40
2018-11-29T19:23:26.699Z,60.10
2018-11-29T19:25:56.997Z,59.50
2018-11-29T19:28:27.257Z,59.70
2018-11-29T19:30:57.543Z,60.30
2018-11-29T19:33:28.652Z,59.50
2018-11-29T19:35:58.963Z,59.30
2018-11-29T19:38:29.216Z,59.40
2018-11-29T19:40:59.590Z,59.30
2018-11-29T19:43:29.844Z,58.80
2018-11-29T19:46:00.162Z,59.00
2018-11-29T19:48:30.465Z,59.00
2018-11-29T19:51:00.767Z,59.10
2018-11-29T19:53:31.069Z,58.70
2018-11-29T19:56:04.094Z,58.70
2018-11-29T19:58:35.950Z,58.40
2018-11-29T20:01:07.580Z,58.10
2018-11-29T20:03:39.532Z,57.60
2018-11-29T20:06:12.355Z,57.70
2018-11-29T20:08:43.374Z,57.70
2018-11-29T20:11:16.977Z,58.00
2018-11-29T20:13:48.468Z,58.20
2018-11-29T20:16:20.556Z,58.60
2018-11-29T20:18:51.384Z,58.50
2018-11-29T20:21:23.131Z,58.20
2018-11-29T20:23:54.837Z,58.10
2018-11-29T20:26:26.372Z,58.00
2018-11-29T20:28:58.019Z,57.80
2018-11-29T20:31:29.369Z,57.80
2018-11-29T20:34:01.935Z,57.80
2018-11-29T20:36:34.456Z,57.60
2018-11-29T20:39:08.632Z,57.40
2018-11-29T20:41:40.519Z,58.10
2018-11-29T20:44:12.731Z,57.60
2018-11-29T20:46:44.637Z,57.70
2018-11-29T20:49:15.970Z,58.30
2018-11-29T20:51:47.989Z,58.60
2018-11-29T20:54:19.165Z,58.60
2018-11-29T20:56:50.837Z,58.40
2018-11-29T20:59:21.554Z,58.40
2018-11-29T21:01:52.575Z,58.30
2018-11-29T21:04:24.438Z,58.40
2018-11-29T21:06:56.520Z,58.70
2018-11-29T21:09:28.827Z,58.70
2018-11-29T21:12:00.445Z,58.30
2018-11-29T21:14:32.555Z,58.10
2018-11-29T21:17:04.852Z,58.10
2018-11-29T21:19:37.339Z,58.00
2018-11-29T21:22:09.406Z,58.20
2018-11-29T21:24:41.083Z,58.20
2018-11-29T21:27:12.942Z,58.00
2018-11-29T21:29:44.350Z,58.10
2018-11-29T21:32:15.604Z,58.30
2018-11-29T21:34:47.127Z,58.30
2018-11-29T21:37:19.781Z,58.00
2018-11-29T21:39:50.888Z,58.20
2018-11-29T21:42:21.769Z,58.20
2018-11-29T21:44:52.221Z,58.00
2018-11-29T21:47:22.496Z,58.00
2018-11-29T21:49:52.805Z,58.00
2018-11-29T21:52:23.452Z,58.10
2018-11-29T21:54:54.085Z,57.70
2018-11-29T21:57:24.757Z,57.70
2018-11-29T21:59:55.114Z,57.40
2018-11-29T22:02:25.502Z,57.20
2018-11-29T22:04:56.506Z,57.20
2018-11-29T22:07:27.223Z,57.40
2018-11-29T22:09:57.708Z,57.30
2018-11-29T22:12:28.005Z,57.30
2018-11-29T22:14:58.541Z,57.30
2018-11-29T22:17:29.162Z,56.90
2018-11-29T22:19:59.692Z,56.90
2018-11-29T22:22:30.041Z,57.10
2018-11-29T22:25:00.337Z,57.10
2018-11-29T22:27:31.038Z,57.20
2018-11-29T22:30:05.248Z,57.60
2018-11-29T22:32:36.088Z,57.80
2018-11-29T22:35:08.123Z,58.00
2018-11-29T22:37:38.773Z,58.00
2018-11-29T22:40:10.158Z,58.20
2018-11-29T22:42:41.957Z,58.30
2018-11-29T22:45:12.361Z,58.70
2018-11-29T22:47:43.102Z,58.80
2018-11-29T22:50:13.861Z,58.80
2018-11-29T22:52:44.216Z,58.80
2018-11-29T22:55:15.060Z,58.30
2018-11-29T22:57:45.408Z,59.80
2018-11-29T23:00:19.509Z,59.10
2018-11-29T23:02:50.899Z,59.20
2018-11-29T23:05:21.476Z,59.30
2018-11-29T23:07:52.078Z,59.00
2018-11-29T23:10:22.648Z,58.60
2018-11-29T23:12:53.108Z,58.20
2018-11-29T23:15:24.292Z,57.90
2018-11-29T23:17:54.649Z,57.70
2018-11-29T23:20:26.635Z,57.80
2018-11-29T23:22:57.412Z,57.90
2018-11-29T23:25:28.163Z,57.90
2018-11-29T23:27:58.613Z,57.90
2018-11-29T23:30:29.193Z,57.70
2018-11-29T23:32:59.463Z,57.60
2018-11-29T23:35:29.795Z,57.70
2018-11-29T23:38:00.133Z,57.90
2018-11-29T23:40:30.467Z,58.20
2018-11-29T23:43:00.780Z,58.40
2018-11-29T23:45:31.112Z,58.40
2018-11-29T23:48:01.461Z,58.20
2018-11-29T23:50:31.769Z,58.10
2018-11-29T23:53:02.071Z,58.00
2018-11-29T23:55:32.576Z,57.70
2018-11-29T23:58:02.857Z,58.00
